Time;durP1;ratioP1;P1;durP2;ratioP2;P2;SDS_P1;SDS_P2;PMS_P1;PMS_P2;Temp;Humidity;BMP_temperature;BMP_pressure;BME280_temperature;BME280_humidity;BME280_pressure;Samples;Min_cycle;Max_cycle;Signal;HPM_P1;HPM_P2
2021/12/27 00:01:25;;;;;;;42.95;17.10;;;;;;;4.61;86.06;98844.09;5042081;28;20040;-85
2021/12/27 00:03:54;;;;;;;37.70;16.58;;;;;;;4.62;85.98;98844.91;5071073;28;20146;-85
2021/12/27 00:06:21;;;;;;;44.33;19.35;;;;;;;4.63;86.14;98843.94;5042157;28;20124;-85
2021/12/27 00:08:49;;;;;;;41.17;16.92;;;;;;;4.63;86.02;98842.19;5072035;28;20513;-85
2021/12/27 00:11:16;;;;;;;49.65;20.65;;;;;;;4.64;86.13;98835.94;5071715;28;20467;-85
2021/12/27 00:13:43;;;;;;;45.55;19.23;;;;;;;4.65;86.26;98839.41;5038577;28;20115;-85
2021/12/27 00:16:11;;;;;;;46.05;20.52;;;;;;;4.65;86.24;98834.16;5067388;28;20047;-85
2021/12/27 00:18:38;;;;;;;52.97;21.10;;;;;;;4.64;85.99;98840.38;5055048;28;20040;-85
2021/12/27 00:21:05;;;;;;;46.25;18.17;;;;;;;4.64;86.33;98840.38;5075330;28;20040;-84
2021/12/27 00:23:32;;;;;;;44.50;19.17;;;;;;;4.65;86.24;98834.16;5072405;28;20041;-85
2021/12/27 00:25:59;;;;;;;50.50;19.67;;;;;;;4.64;86.48;98835.13;5049106;28;20460;-84
2021/12/27 00:28:27;;;;;;;48.35;19.65;;;;;;;4.65;86.38;98834.97;5071430;28;20048;-85
2021/12/27 00:30:54;;;;;;;39.70;18.13;;;;;;;4.66;86.40;98836.66;5038087;28;20057;-85
2021/12/27 00:33:21;;;;;;;47.08;18.70;;;;;;;4.65;86.39;98826.25;5058907;28;20041;-85
2021/12/27 00:35:48;;;;;;;47.90;20.17;;;;;;;4.67;86.29;98824.34;5054716;28;20049;-85
2021/12/27 00:38:15;;;;;;;44.50;20.83;;;;;;;4.68;86.04;98829.50;5021573;28;20056;-85
2021/12/27 00:40:42;;;;;;;45.28;19.13;;;;;;;4.68;86.21;98831.25;5071159;28;20044;-84
2021/12/27 00:43:09;;;;;;;42.53;20.10;;;;;;;4.69;86.09;98825.06;5053647;28;20048;-85
2021/12/27 00:45:36;;;;;;;35.65;16.08;;;;;;;4.68;86.28;98826.00;5075875;28;20508;-85
2021/12/27 00:48:04;;;;;;;47.03;18.27;;;;;;;4.69;86.27;98825.91;5061179;28;20450;-84
2021/12/27 00:50:30;;;;;;;40.28;18.10;;;;;;;4.70;86.15;98821.47;5043297;28;20044;-85
2021/12/27 00:52:57;;;;;;;45.60;18.13;;;;;;;4.69;86.40;98818.00;5076944;28;20053;-84
2021/12/27 00:55:24;;;;;;;45.90;17.95;;;;;;;4.70;86.42;98826.72;5063801;28;20502;-84
2021/12/27 00:57:53;;;;;;;46.83;19.00;;;;;;;4.71;86.21;98820.53;5022453;28;20044;-85
2021/12/27 01:00:22;;;;;;;46.00;19.83;;;;;;;4.72;86.43;98809.03;5057322;28;20369;-85
2021/12/27 01:02:49;;;;;;;41.13;17.83;;;;;;;4.71;86.42;98810.00;5065832;28;20093;-85
2021/12/27 01:05:16;;;;;;;45.42;17.77;;;;;;;4.70;86.41;98819.66;5083985;28;20124;-85
2021/12/27 01:07:43;;;;;;;43.45;18.52;;;;;;;4.71;86.32;98810.00;5043805;28;20044;-85
2021/12/27 01:17:47;;;;;;;44.13;20.13;;;;;;;4.73;86.39;98816.81;5050817;28;20495;-85
2021/12/27 01:20:17;;;;;;;44.28;19.23;;;;;;;4.72;86.12;98825.66;5063205;28;20055;-84
2021/12/27 01:22:44;;;;;;;44.72;19.20;;;;;;;4.72;86.46;98816.94;5058243;28;20047;-85
2021/12/27 01:25:12;;;;;;;40.55;18.25;;;;;;;4.74;86.28;98815.00;5082108;28;20522;-85
2021/12/27 01:27:40;;;;;;;46.17;19.38;;;;;;;4.74;86.47;98820.28;5067330;28;20567;-84
2021/12/27 01:30:10;;;;;;;45.42;19.40;;;;;;;4.73;86.45;98814.19;5042077;28;20699;-85
2021/12/27 01:32:44;;;;;;;40.00;16.85;;;;;;;4.73;86.50;98819.44;5083890;28;20040;-85
2021/12/27 01:35:12;;;;;;;40.50;16.98;;;;;;;4.73;86.39;98815.94;5042233;28;20538;-85
2021/12/27 01:37:39;;;;;;;46.22;19.33;;;;;;;4.75;86.35;98822.75;5043988;28;20047;-85
2021/12/27 01:40:11;;;;;;;36.85;17.50;;;;;;;4.72;86.38;98827.44;5057424;28;20040;-85
2021/12/27 01:43:02;;;;;;;40.13;18.23;;;;;;;4.65;86.33;98821.84;5045127;28;20063;-85
2021/12/27 01:45:29;;;;;;;39.97;18.02;;;;;;;4.73;86.42;98829.97;5023538;28;20037;-84
2021/12/27 01:47:56;;;;;;;47.85;18.98;;;;;;;4.75;86.38;98821.94;5047761;28;20048;-85
2021/12/27 01:50:23;;;;;;;40.78;18.42;;;;;;;4.75;86.58;98827.19;5053032;28;20126;-84
2021/12/27 01:52:49;;;;;;;45.50;18.13;;;;;;;4.75;86.63;98829.81;5044177;28;20044;-85
2021/12/27 01:55:16;;;;;;;41.38;17.77;;;;;;;4.75;86.47;98830.66;5046332;28;20049;-85
2021/12/27 01:57:43;;;;;;;41.90;18.15;;;;;;;4.74;86.58;98826.38;5024756;28;20055;-85
2021/12/27 02:00:11;;;;;;;44.25;20.40;;;;;;;4.77;86.69;98830.53;5073324;28;20142;-85
2021/12/27 02:02:45;;;;;;;42.78;17.98;;;;;;;4.76;86.42;98834.13;5043551;28;20052;-84
2021/12/27 02:05:13;;;;;;;42.63;18.88;;;;;;;4.77;86.39;98828.75;5057255;28;20053;-85
2021/12/27 02:07:40;;;;;;;43.38;18.38;;;;;;;4.78;86.62;98824.31;5060452;28;20044;-85
2021/12/27 02:10:11;;;;;;;47.35;19.25;;;;;;;4.76;86.55;98815.72;5070963;28;20125;-85
2021/12/27 02:12:39;;;;;;;41.33;18.27;;;;;;;4.78;86.64;98819.06;5060879;28;20044;-85
2021/12/27 02:15:09;;;;;;;46.33;18.88;;;;;;;4.79;86.47;98820.75;5056664;28;20382;-84
2021/12/27 02:17:38;;;;;;;48.67;18.98;;;;;;;4.79;86.65;98816.31;5026956;28;21324;-85
2021/12/27 02:20:07;;;;;;;42.58;18.95;;;;;;;4.78;86.62;98812.03;5057249;28;20040;-85
2021/12/27 02:22:36;;;;;;;45.95;19.80;;;;;;;4.79;86.49;98816.31;5046752;28;20047;-85
2021/12/27 02:25:07;;;;;;;41.28;17.52;;;;;;;4.78;86.51;98813.78;5058116;28;20514;-85
2021/12/27 02:27:34;;;;;;;40.72;18.73;;;;;;;4.82;86.73;98814.41;5060226;28;20053;-85
2021/12/27 02:30:07;;;;;;;44.05;19.27;;;;;;;4.79;86.50;98813.69;5074947;28;20051;-85
2021/12/27 02:32:46;;;;;;;42.00;18.55;;;;;;;4.75;86.53;98806.16;5043666;28;20044;-85
2021/12/27 02:35:16;;;;;;;50.03;20.55;;;;;;;4.82;86.55;98815.22;4997135;28;20123;-85
2021/12/27 02:37:43;;;;;;;45.95;19.50;;;;;;;4.82;86.62;98811.75;5046314;28;20495;-85
2021/12/27 02:40:10;;;;;;;39.92;16.50;;;;;;;4.83;86.66;98816.06;5014681;28;20056;-84
2021/12/27 02:42:57;;;;;;;46.40;17.85;;;;;;;4.74;86.59;98805.31;5026668;28;20048;-85
2021/12/27 02:45:25;;;;;;;40.05;17.45;;;;;;;4.83;86.65;98795.00;5011904;28;20041;-85
2021/12/27 02:47:52;;;;;;;39.47;16.80;;;;;;;4.84;86.68;98808.06;5050509;28;20044;-85
2021/12/27 02:50:19;;;;;;;41.58;19.10;;;;;;;4.86;86.69;98802.66;5024234;28;20407;-85
2021/12/27 02:53:15;;;;;;;41.45;17.48;;;;;;;4.76;86.49;98802.59;5049915;28;20138;-85
2021/12/27 02:55:43;;;;;;;43.95;18.15;;;;;;;4.86;86.60;98805.28;4996828;28;20063;-85
2021/12/27 02:58:10;;;;;;;39.00;15.27;;;;;;;4.86;86.63;98798.25;5069732;28;20094;-85
2021/12/27 03:00:57;;;;;;;37.60;16.00;;;;;;;4.86;86.44;98797.38;4991078;28;20597;-85
2021/12/27 03:03:25;;;;;;;34.55;14.75;;;;;;;4.87;86.63;98799.06;5052184;28;20052;-85
2021/12/27 03:05:52;;;;;;;37.80;16.95;;;;;;;4.86;86.76;98793.00;5078233;28;20043;-85
2021/12/27 03:08:20;;;;;;;38.08;15.98;;;;;;;4.89;86.53;98791.91;5042114;28;20048;-85
2021/12/27 03:10:51;;;;;;;38.22;16.55;;;;;;;4.85;86.63;98788.66;5059986;28;20129;-85
2021/12/27 03:13:25;;;;;;;39.10;16.00;;;;;;;4.86;86.69;98779.84;5062380;28;20511;-85
2021/12/27 03:15:59;;;;;;;32.00;14.23;;;;;;;4.86;86.64;98786.88;5072389;28;20411;-85
2021/12/27 03:18:27;;;;;;;33.58;15.02;;;;;;;4.90;86.63;98786.50;5053960;28;20048;-84
2021/12/27 03:20:55;;;;;;;27.48;11.88;;;;;;;4.90;86.52;98775.97;5043695;28;20369;-85
2021/12/27 03:23:22;;;;;;;36.00;15.90;;;;;;;4.92;86.65;98789.00;5070308;28;20045;-84
2021/12/27 03:25:49;;;;;;;37.15;16.02;;;;;;;4.92;86.67;98775.84;5040464;28;20063;-85
2021/12/27 03:28:17;;;;;;;34.88;15.45;;;;;;;4.92;86.77;98786.38;5058630;28;20483;-84
2021/12/27 03:30:43;;;;;;;39.33;15.13;;;;;;;4.91;86.91;98776.81;5054507;28;20045;-85
2021/12/27 03:33:11;;;;;;;44.08;16.33;;;;;;;4.90;86.76;98781.22;5052807;28;20056;-85
2021/12/27 03:35:48;;;;;;;34.92;15.82;;;;;;;4.90;86.92;98783.03;5049753;28;20052;-85
2021/12/27 03:38:15;;;;;;;34.38;14.02;;;;;;;4.92;86.94;98778.50;5040982;28;20052;-85
2021/12/27 03:40:43;;;;;;;33.65;13.98;;;;;;;4.92;86.72;98781.94;5027308;28;20377;-85
2021/12/27 03:43:09;;;;;;;37.85;15.82;;;;;;;4.90;87.01;98780.41;5050587;28;20066;-85
2021/12/27 03:45:38;;;;;;;32.50;13.63;;;;;;;4.91;86.91;98782.06;5047092;28;20107;-85
2021/12/27 03:48:07;;;;;;;35.03;14.82;;;;;;;4.91;86.85;98782.06;5041260;28;20040;-85
2021/12/27 03:50:34;;;;;;;32.75;13.80;;;;;;;4.92;86.94;98779.31;5057241;28;20043;-85
2021/12/27 03:53:01;;;;;;;34.28;15.68;;;;;;;4.92;87.08;98789.84;5039887;28;20045;-85
2021/12/27 03:55:28;;;;;;;42.05;17.15;;;;;;;4.93;86.94;98780.16;5067666;28;20045;-85
2021/12/27 03:58:06;;;;;;;35.78;16.40;;;;;;;4.92;86.96;98778.50;5076955;28;20047;-85
2021/12/27 04:03:21;;;;;;;40.03;16.98;;;;;;;4.93;87.11;98777.53;5074985;28;20040;-85
2021/12/27 04:05:47;;;;;;;33.90;15.18;;;;;;;4.93;87.09;98782.78;5036601;28;20041;-85
2021/12/27 04:08:17;;;;;;;35.65;15.65;;;;;;;4.94;87.07;98781.84;5054972;28;20053;-85
2021/12/27 04:10:45;;;;;;;34.92;16.15;;;;;;;4.93;86.94;98761.72;5056583;28;20045;-85
2021/12/27 04:13:12;;;;;;;37.25;15.50;;;;;;;4.93;87.15;98765.19;5056583;28;20051;-85
2021/12/27 04:15:40;;;;;;;34.70;15.73;;;;;;;4.95;87.00;98760.66;5042003;28;20113;-85
2021/12/27 04:18:09;;;;;;;36.95;14.98;;;;;;;4.95;87.04;98759.81;5005962;28;20076;-85
2021/12/27 04:20:36;;;;;;;36.30;15.93;;;;;;;4.96;87.01;98767.59;5060250;28;20047;-85
2021/12/27 04:23:03;;;;;;;40.78;16.75;;;;;;;4.97;86.92;98764.00;5072398;28;20041;-85
2021/12/27 04:25:30;;;;;;;35.88;16.00;;;;;;;4.96;87.22;98756.22;5051376;28;20070;-85
2021/12/27 04:27:56;;;;;;;29.90;14.95;;;;;;;4.95;87.14;98752.75;5073505;28;20746;-85
2021/12/27 04:30:23;;;;;;;29.13;13.32;;;;;;;4.95;86.97;98760.66;5063726;28;20049;-85
2021/12/27 04:32:50;;;;;;;34.50;14.75;;;;;;;4.97;87.04;98763.16;5075802;28;20460;-85
2021/12/27 04:35:18;;;;;;;35.78;15.35;;;;;;;4.97;86.86;98761.34;5055123;28;20484;-85
2021/12/27 04:37:48;;;;;;;37.70;16.05;;;;;;;4.98;87.07;98763.00;5073753;28;20041;-85
2021/12/27 04:40:17;;;;;;;33.38;14.98;;;;;;;5.00;86.92;98760.28;5058526;28;20049;-84
2021/12/27 04:42:46;;;;;;;34.08;14.20;;;;;;;5.00;86.96;98753.22;5081315;28;20051;-85
2021/12/27 04:45:20;;;;;;;31.17;13.65;;;;;;;4.98;86.71;98756.94;5071986;28;20049;-85
2021/12/27 04:47:46;;;;;;;;;;;;;;;4.83;87.02;98759.00;5040045;28;20068;-85
2021/12/27 04:50:16;;;;;;;34.33;14.00;;;;;;;4.94;86.89;98751.09;5047885;28;20028;-85
2021/12/27 04:52:45;;;;;;;34.50;13.25;;;;;;;4.97;86.94;98753.47;5042962;28;20044;-85
2021/12/27 04:55:11;;;;;;;39.33;15.50;;;;;;;4.99;87.11;98748.09;5048690;28;20444;-85
2021/12/27 04:57:38;;;;;;;35.20;14.75;;;;;;;4.97;87.22;98744.75;5078696;28;20048;-85
2021/12/27 05:00:06;;;;;;;36.67;16.02;;;;;;;5.00;86.89;98760.28;5040460;28;20704;-85
2021/12/27 05:02:33;;;;;;;40.85;16.08;;;;;;;5.00;87.04;98755.84;5044600;28;20044;-84
2021/12/27 05:05:00;;;;;;;43.75;17.48;;;;;;;4.99;87.12;98759.44;5058210;28;20072;-85
2021/12/27 05:07:27;;;;;;;45.78;17.90;;;;;;;5.01;86.86;98748.78;5039379;28;20040;-85
2021/12/27 05:09:53;;;;;;;40.05;16.67;;;;;;;5.00;87.12;98740.06;5040128;28;20043;-85
2021/12/27 05:12:20;;;;;;;34.03;14.88;;;;;;;5.01;87.20;98748.78;5063494;28;20040;-84
2021/12/27 05:14:47;;;;;;;37.58;16.23;;;;;;;5.02;87.39;98752.25;5043822;28;20060;-85
2021/12/27 05:17:13;;;;;;;33.45;15.07;;;;;;;5.02;87.17;98747.84;5062752;28;20049;-84
2021/12/27 05:19:41;;;;;;;34.50;13.90;;;;;;;5.04;87.17;98745.06;5060843;28;20451;-85
2021/12/27 05:22:08;;;;;;;38.95;15.20;;;;;;;5.05;87.07;98746.75;5062782;28;20100;-85
2021/12/27 05:24:34;;;;;;;38.00;15.98;;;;;;;5.05;87.04;98744.13;5054210;28;20036;-85
2021/12/27 05:27:01;;;;;;;35.08;15.35;;;;;;;5.06;87.07;98743.13;5041244;28;20041;-85
2021/12/27 05:29:28;;;;;;;31.27;14.23;;;;;;;5.04;87.20;98740.66;5061558;28;20055;-85
2021/12/27 05:31:58;;;;;;;33.03;14.07;;;;;;;5.04;87.19;98735.38;5054293;28;20413;-85
2021/12/27 05:34:33;;;;;;;32.63;13.65;;;;;;;5.05;87.23;98741.47;5044982;28;20049;-85
2021/12/27 05:37:00;;;;;;;30.50;14.10;;;;;;;5.06;87.24;98740.50;5054126;28;20063;-85
2021/12/27 05:39:27;;;;;;;29.60;13.45;;;;;;;5.08;87.21;98734.16;5048804;28;20037;-84
2021/12/27 05:41:53;;;;;;;34.28;13.95;;;;;;;5.08;87.28;98728.06;5050221;28;20049;-85
2021/12/27 05:44:20;;;;;;;34.58;15.05;;;;;;;5.08;87.06;98721.00;5055676;28;20055;-85
2021/12/27 05:46:48;;;;;;;35.95;14.40;;;;;;;5.10;87.03;98723.50;5060008;28;20040;-85
2021/12/27 05:49:15;;;;;;;34.30;14.25;;;;;;;5.09;87.07;98721.81;5075134;28;20044;-85
2021/12/27 05:51:43;;;;;;;33.38;13.43;;;;;;;5.10;87.16;98728.78;5057301;28;20396;-85
2021/12/27 05:54:12;;;;;;;31.50;13.82;;;;;;;5.11;87.13;98727.81;5037956;28;20496;-85
2021/12/27 05:56:43;;;;;;;36.42;14.13;;;;;;;5.11;87.18;98727.81;5057063;28;20044;-85
2021/12/27 05:59:12;;;;;;;31.00;14.52;;;;;;;5.12;87.16;98724.22;5081805;28;20040;-85
2021/12/27 06:01:39;;;;;;;38.60;15.73;;;;;;;5.12;87.25;98726.84;5068454;28;20044;-85
2021/12/27 06:04:06;;;;;;;37.25;15.63;;;;;;;5.11;87.20;98723.38;5073679;28;20036;-85
2021/12/27 06:06:33;;;;;;;39.13;17.20;;;;;;;5.12;87.26;98721.59;5057730;28;20044;-85
2021/12/27 06:09:00;;;;;;;40.33;17.75;;;;;;;5.11;87.39;98718.09;5070747;28;20484;-85
2021/12/27 06:11:27;;;;;;;41.03;16.70;;;;;;;5.10;87.16;98711.19;5075171;28;20041;-85
2021/12/27 06:13:54;;;;;;;45.65;16.40;;;;;;;5.10;87.04;98713.81;5052916;28;20040;-85
2021/12/27 06:16:20;;;;;;;39.22;15.77;;;;;;;5.10;87.21;98713.81;5054437;28;20546;-85
2021/12/27 06:18:47;;;;;;;32.47;13.82;;;;;;;5.11;87.01;98718.09;5069586;28;20090;-85
2021/12/27 06:21:14;;;;;;;38.00;14.52;;;;;;;5.11;86.98;98709.38;5045325;28;20048;-85
2021/12/27 06:23:46;;;;;;;35.00;15.82;;;;;;;5.08;86.94;98709.66;5055238;28;20049;-85
2021/12/27 06:26:13;;;;;;;38.05;16.23;;;;;;;5.12;87.38;98714.53;5040591;28;20055;-85
2021/12/27 06:28:40;;;;;;;38.47;15.85;;;;;;;5.12;87.22;98703.19;5039058;28;20054;-85
2021/12/27 06:31:07;;;;;;;42.35;15.77;;;;;;;5.12;87.17;98706.63;5051321;28;20712;-85
2021/12/27 06:33:33;;;;;;;29.02;12.07;;;;;;;5.12;87.32;98709.25;5041040;28;20081;-85
2021/12/27 06:36:00;;;;;;;32.13;14.38;;;;;;;5.13;87.03;98707.47;5037422;28;20124;-85
2021/12/27 06:38:27;;;;;;;38.58;16.00;;;;;;;5.14;87.17;98701.22;5038796;28;20056;-85
2021/12/27 06:40:54;;;;;;;33.58;13.55;;;;;;;5.13;87.20;98694.31;5037496;28;20040;-86
2021/12/27 06:43:20;;;;;;;36.95;13.65;;;;;;;5.12;87.15;98690.84;5070797;28;20499;-88
2021/12/27 06:45:47;;;;;;;30.15;13.70;;;;;;;5.13;87.06;98694.31;5059088;28;20049;-90
2021/12/27 06:48:15;;;;;;;37.70;14.77;;;;;;;5.14;86.97;98701.22;5056851;28;20036;-90
2021/12/27 06:50:42;;;;;;;41.47;15.95;;;;;;;5.15;87.10;98700.28;5067461;28;20140;-89
2021/12/27 06:53:09;;;;;;;36.85;16.08;;;;;;;5.14;87.12;98688.91;5056898;28;20055;-89
2021/12/27 06:55:42;;;;;;;35.17;15.13;;;;;;;5.14;86.98;98691.56;5062033;28;20447;-89
2021/12/27 06:58:09;;;;;;;38.75;15.27;;;;;;;5.13;87.21;98695.13;5075645;28;20054;-88
2021/12/27 07:00:37;;;;;;;38.90;13.50;;;;;;;5.14;87.15;98688.91;5059702;28;20043;-89
2021/12/27 07:03:03;;;;;;;36.88;14.85;;;;;;;5.14;87.03;98691.56;5077562;28;20462;-89
2021/12/27 07:05:30;;;;;;;32.63;14.98;;;;;;;5.15;87.23;98689.75;5080532;28;20043;-89
2021/12/27 07:07:57;;;;;;;28.77;12.07;;;;;;;5.16;87.04;98692.22;5030269;28;20054;-89
2021/12/27 07:10:27;;;;;;;29.70;11.43;;;;;;;5.16;86.97;98691.41;5045713;28;20064;-89
2021/12/27 07:12:54;;;;;;;32.17;13.63;;;;;;;5.17;87.01;98687.84;5060329;28;20044;-89
2021/12/27 07:15:20;;;;;;;38.13;16.02;;;;;;;5.16;86.92;98686.97;5049809;28;20049;-89
2021/12/27 07:17:47;;;;;;;37.33;16.00;;;;;;;5.17;86.84;98687.84;5059966;28;20044;-89
2021/12/27 07:20:14;;;;;;;39.00;18.20;;;;;;;5.16;86.74;98684.34;5061128;28;25672;-89
2021/12/27 07:22:41;;;;;;;40.90;19.63;;;;;;;5.17;86.82;98679.94;5046418;28;20395;-89
2021/12/27 07:25:08;;;;;;;41.28;17.23;;;;;;;5.16;86.95;98684.34;5053937;28;20051;-89
2021/12/27 07:27:35;;;;;;;43.72;17.70;;;;;;;5.17;87.07;98683.41;5058149;28;20044;-89
2021/12/27 07:30:04;;;;;;;37.20;16.50;;;;;;;5.17;86.92;98685.19;5036928;28;20044;-89
2021/12/27 07:32:31;;;;;;;36.38;15.50;;;;;;;5.17;86.97;98686.03;5043627;28;20836;-89
2021/12/27 07:34:58;;;;;;;37.08;16.08;;;;;;;5.17;87.10;98686.03;5042939;28;20055;-89
2021/12/27 07:37:24;;;;;;;42.72;17.65;;;;;;;5.17;86.88;98683.41;5015503;28;20055;-88
2021/12/27 07:39:53;;;;;;;41.67;16.80;;;;;;;5.16;86.85;98679.06;5059891;28;20052;-89
2021/12/27 07:42:21;;;;;;;38.75;16.58;;;;;;;5.18;86.89;98684.22;5042297;28;20636;-89
2021/12/27 07:44:52;;;;;;;33.13;15.02;;;;;;;5.18;86.86;98685.06;5045619;28;20458;-89
2021/12/27 07:47:20;;;;;;;36.72;15.02;;;;;;;5.19;86.80;98691.13;5038942;28;20040;-89
2021/12/27 07:49:48;;;;;;;35.50;15.32;;;;;;;5.17;86.99;98691.28;5026385;28;20117;-89
2021/12/27 07:52:15;;;;;;;40.22;15.85;;;;;;;5.19;86.84;98691.13;5055742;28;20047;-89
2021/12/27 07:54:42;;;;;;;44.70;17.17;;;;;;;5.19;86.88;98689.38;5039344;28;20047;-89
2021/12/27 07:57:11;;;;;;;42.25;16.67;;;;;;;5.19;86.83;98688.50;5042941;28;20048;-88
2021/12/27 07:59:38;;;;;;;39.03;15.77;;;;;;;5.20;86.73;98695.47;5063587;28;20062;-90
2021/12/27 08:02:05;;;;;;;37.13;15.13;;;;;;;5.19;86.79;98686.75;5066128;28;20488;-90
2021/12/27 08:04:32;;;;;;;33.05;14.82;;;;;;;5.20;86.89;98690.19;5056361;28;20043;-89
2021/12/27 08:06:58;;;;;;;34.38;14.80;;;;;;;5.20;87.07;98690.19;5062997;28;20093;-89
2021/12/27 08:09:26;;;;;;;34.40;15.93;;;;;;;5.20;86.85;98685.75;5058920;28;20047;-87
2021/12/27 08:11:53;;;;;;;39.05;15.68;;;;;;;5.20;86.82;98685.75;5058790;28;20041;-87
2021/12/27 08:14:21;;;;;;;43.33;17.65;;;;;;;5.22;86.94;98690.91;5077099;28;20047;-87
2021/12/27 08:16:50;;;;;;;42.03;17.98;;;;;;;5.22;87.00;98696.16;5062780;28;20063;-87
2021/12/27 08:19:16;;;;;;;51.13;18.77;;;;;;;5.24;86.98;98694.25;5082523;28;20032;-86
2021/12/27 08:21:44;;;;;;;49.35;18.10;;;;;;;5.23;86.94;98690.75;5085162;28;20048;-90
2021/12/27 08:24:11;;;;;;;47.90;19.75;;;;;;;5.24;87.19;98694.25;5062375;28;20499;-90
2021/12/27 08:26:38;;;;;;;49.30;20.67;;;;;;;5.25;87.12;98695.06;5076523;28;20550;-89
2021/12/27 08:29:08;;;;;;;48.13;20.25;;;;;;;5.24;87.03;98691.63;5040181;28;20036;-91
2021/12/27 08:31:35;;;;;;;51.72;19.67;;;;;;;5.25;87.27;98687.19;5073798;28;20045;-89
2021/12/27 08:34:02;;;;;;;53.60;20.80;;;;;;;5.26;87.13;98686.22;5047024;28;20055;-88
2021/12/27 08:36:29;;;;;;;55.55;22.10;;;;;;;5.27;87.15;98680.81;5060462;28;20048;-89
2021/12/27 08:38:56;;;;;;;49.58;20.17;;;;;;;5.28;87.39;98685.09;5033807;28;20047;-88
2021/12/27 08:41:30;;;;;;;55.05;22.48;;;;;;;5.30;87.44;98682.34;5080390;28;20123;-88
2021/12/27 08:44:00;;;;;;;54.05;20.42;;;;;;;5.31;87.34;98681.38;5047715;28;20044;-89
2021/12/27 08:46:27;;;;;;;52.58;19.30;;;;;;;5.31;87.31;98679.56;5055667;28;20041;-88
2021/12/27 08:48:54;;;;;;;47.78;20.55;;;;;;;5.31;87.36;98682.22;5057076;28;20052;-88
2021/12/27 08:51:21;;;;;;;47.20;19.17;;;;;;;5.33;87.58;98676.81;5071955;28;20056;-88
2021/12/27 08:53:47;;;;;;;42.42;16.55;;;;;;;5.32;87.69;98676.00;5041289;28;20570;-86
2021/12/27 08:56:14;;;;;;;39.10;15.93;;;;;;;5.35;87.76;98677.53;5051996;28;20059;-89
2021/12/27 08:58:41;;;;;;;39.55;13.70;;;;;;;5.35;87.79;98680.16;5023612;28;20044;-88
2021/12/27 09:01:09;;;;;;;38.47;15.48;;;;;;;5.35;87.76;98680.16;5057207;28;20518;-89
2021/12/27 09:03:36;;;;;;;39.35;15.23;;;;;;;5.35;87.49;98677.53;5056886;28;20051;-88
2021/12/27 09:06:09;;;;;;;39.15;15.07;;;;;;;5.36;87.63;98689.72;5066510;28;20500;-89
2021/12/27 09:08:35;;;;;;;48.42;19.30;;;;;;;5.34;87.94;98681.97;5037267;28;20052;-89
2021/12/27 09:11:02;;;;;;;54.53;20.73;;;;;;;5.36;87.94;98692.34;5076082;28;20036;-90
2021/12/27 09:13:32;;;;;;;46.83;17.88;;;;;;;5.38;88.03;98685.16;5043631;28;20048;-88
2021/12/27 09:16:53;;;;;;;46.92;19.00;;;;;;;5.32;87.90;98681.25;5035555;28;20139;-89
2021/12/27 09:19:23;;;;;;;41.25;16.60;;;;;;;5.36;88.31;98685.28;4952175;28;20049;-88
2021/12/27 09:21:52;;;;;;;48.35;18.73;;;;;;;5.43;88.21;98683.81;4995295;28;20636;-89
2021/12/27 09:24:23;;;;;;;40.58;16.20;;;;;;;5.39;88.18;98673.66;4994653;28;20180;-89
2021/12/27 09:26:50;;;;;;;42.58;17.27;;;;;;;5.42;88.27;98665.53;4975518;28;20045;-87
2021/12/27 09:29:17;;;;;;;47.03;17.67;;;;;;;5.43;88.47;98665.38;5023112;28;20417;-90
2021/12/27 09:31:45;;;;;;;44.20;18.23;;;;;;;5.46;88.42;98663.44;4992673;28;20038;-91
2021/12/27 09:34:17;;;;;;;42.83;16.92;;;;;;;5.43;88.05;98662.75;4990045;28;20448;-87
2021/12/27 09:36:47;;;;;;;40.78;16.85;;;;;;;5.45;88.42;98654.72;4971101;28;20140;-89
2021/12/27 09:39:16;;;;;;;47.10;17.83;;;;;;;5.47;88.36;98655.44;4990111;28;20148;-87
2021/12/27 09:41:43;;;;;;;48.33;18.05;;;;;;;5.49;88.32;98647.38;5024403;28;20041;-85
2021/12/27 09:44:09;;;;;;;41.38;16.73;;;;;;;5.48;88.32;98646.56;4983248;28;20049;-88
2021/12/27 09:46:36;;;;;;;37.30;16.70;;;;;;;5.48;88.65;98654.44;5033576;28;20044;-88
2021/12/27 09:49:07;;;;;;;42.40;16.67;;;;;;;5.50;88.15;98644.63;5072336;28;20103;-89
2021/12/27 09:51:37;;;;;;;46.13;20.45;;;;;;;5.52;88.33;98647.09;5013347;28;20099;-90
2021/12/27 09:54:05;;;;;;;41.20;16.70;;;;;;;5.52;88.34;98645.34;5040786;28;20049;-90
2021/12/27 09:56:31;;;;;;;40.67;16.88;;;;;;;5.55;88.66;98647.69;5010209;28;20041;-88
2021/12/27 09:59:01;;;;;;;39.22;15.90;;;;;;;5.58;88.73;98651.84;5009518;28;20053;-88
2021/12/27 10:01:29;;;;;;;41.33;18.85;;;;;;;5.59;88.59;98642.97;5038295;28;20044;-90
2021/12/27 10:03:59;;;;;;;41.80;17.25;;;;;;;5.63;88.52;98639.97;5009959;28;20055;-89
2021/12/27 10:06:31;;;;;;;44.28;17.65;;;;;;;5.62;88.61;98638.31;5022040;28;20059;-90
2021/12/27 10:09:02;;;;;;;38.07;16.27;;;;;;;5.62;88.87;98625.13;5008306;28;20047;-89
2021/12/27 10:11:34;;;;;;;44.53;17.65;;;;;;;5.62;88.74;98619.00;5024750;28;20455;-89
2021/12/27 10:14:09;;;;;;;45.60;19.70;;;;;;;5.61;88.67;98620.81;5007971;28;20045;-90
2021/12/27 10:16:42;;;;;;;36.55;17.08;;;;;;;5.65;88.74;98614.31;5039671;28;20059;-89
2021/12/27 10:19:11;;;;;;;41.35;16.98;;;;;;;5.66;89.05;98597.53;5001871;28;20045;-88
2021/12/27 10:21:43;;;;;;;44.83;17.88;;;;;;;5.68;89.08;98594.78;5024825;28;20056;-90
2021/12/27 10:24:16;;;;;;;40.13;19.27;;;;;;;5.68;88.81;98600.06;5055133;28;20059;-91
2021/12/27 10:26:44;;;;;;;41.13;18.13;;;;;;;5.70;89.18;98597.25;5049216;28;20740;-90
2021/12/27 10:29:13;;;;;;;40.63;15.98;;;;;;;5.73;89.08;98592.59;5076027;28;20048;-89
2021/12/27 10:32:04;;;;;;;44.60;18.17;;;;;;;5.69;89.02;98591.16;5081099;28;20127;-89
2021/12/27 10:34:37;;;;;;;44.10;18.27;;;;;;;5.74;89.15;98590.78;5030866;28;20086;-90
2021/12/27 10:37:05;;;;;;;40.83;17.48;;;;;;;5.77;89.34;98598.41;5076809;28;20045;-90
2021/12/27 10:39:46;;;;;;;49.13;18.20;;;;;;;5.76;88.88;98599.38;5072368;28;20043;-89
2021/12/27 10:42:26;;;;;;;39.33;16.30;;;;;;;5.82;89.25;98597.00;5046454;28;20049;-90
2021/12/27 10:44:56;;;;;;;42.63;16.55;;;;;;;5.83;89.43;98605.78;5079500;28;20111;-90
2021/12/27 10:47:30;;;;;;;49.67;20.33;;;;;;;5.81;89.37;98590.09;5060974;28;20080;-89
2021/12/27 10:50:03;;;;;;;58.63;21.45;;;;;;;5.87;89.55;98593.97;5060964;28;20075;-89
2021/12/27 10:52:43;;;;;;;43.38;18.38;;;;;;;5.82;90.45;98596.19;5058544;28;20049;-89
2021/12/27 10:55:10;;;;;;;45.40;18.05;;;;;;;5.93;90.11;98589.97;5078971;28;20036;-90
2021/12/27 10:57:37;;;;;;;39.33;16.85;;;;;;;6.00;89.82;98589.31;5061934;28;20048;-90
2021/12/27 11:00:14;;;;;;;42.00;17.38;;;;;;;5.98;90.17;98593.03;5045304;28;20059;-88
2021/12/27 11:02:42;;;;;;;37.67;17.80;;;;;;;6.09;90.17;98591.13;5075451;28;20043;-89
2021/12/27 11:05:14;;;;;;;39.67;18.40;;;;;;;6.09;89.59;98582.41;5079816;28;20450;-88
2021/12/27 11:07:42;;;;;;;41.38;17.42;;;;;;;6.12;89.90;98584.75;5072832;28;20043;-90
2021/12/27 11:10:09;;;;;;;41.42;19.08;;;;;;;6.15;89.71;98578.38;5064573;28;20047;-89
2021/12/27 11:12:36;;;;;;;33.35;16.98;;;;;;;6.15;90.10;98579.19;5075494;28;20058;-89
2021/12/27 11:15:04;;;;;;;47.05;19.83;;;;;;;6.15;89.76;98568.66;5077217;28;20503;-89
2021/12/27 11:17:32;;;;;;;32.75;15.93;;;;;;;6.17;89.92;98569.34;5078954;28;20048;-89
2021/12/27 11:19:59;;;;;;;34.42;15.77;;;;;;;6.22;89.83;98568.94;5061003;28;20040;-90
2021/12/27 11:22:27;;;;;;;32.20;16.02;;;;;;;6.22;89.97;98569.75;5069801;28;20052;-84
2021/12/27 11:24:59;;;;;;;30.67;14.48;;;;;;;6.23;89.80;98568.81;5027601;28;20032;-85
2021/12/27 11:27:32;;;;;;;24.38;12.55;;;;;;;6.19;89.80;98571.84;5040214;28;20090;-84
2021/12/27 11:30:09;;;;;;;29.05;14.93;;;;;;;6.21;89.79;98564.66;5045385;28;20043;-84
2021/12/27 11:33:14;;;;;;;29.75;14.25;;;;;;;6.18;89.98;98557.84;5023683;28;20488;-85
2021/12/27 11:35:50;;;;;;;28.15;13.70;;;;;;;6.25;90.09;98552.84;5011958;28;20127;-85
2021/12/27 11:38:42;;;;;;;37.55;14.10;;;;;;;6.23;89.97;98560.91;5043308;28;20044;-86
2021/12/27 11:41:34;;;;;;;27.52;14.18;;;;;;;6.18;90.37;98549.09;5046978;28;20045;-86
2021/12/27 11:44:17;;;;;;;28.52;13.32;;;;;;;6.24;90.30;98552.00;4998597;28;20049;-87
2021/12/27 11:46:48;;;;;;;26.23;12.82;;;;;;;6.30;90.15;98543.53;5026875;28;20119;-86